createdAt,value
2019-02-21T01:25:57.493Z,99.90
2019-02-21T01:28:27.904Z,99.90
2019-02-21T01:30:58.355Z,99.90
2019-02-21T01:33:28.792Z,99.90
2019-02-21T01:35:59.245Z,99.90
2019-02-21T01:38:29.705Z,99.90
2019-02-21T01:41:00.130Z,99.90
2019-02-21T01:43:30.851Z,99.90
2019-02-21T01:46:01.307Z,99.90
2019-02-21T01:48:31.728Z,99.90
2019-02-21T01:51:02.204Z,99.90
2019-02-21T01:53:32.668Z,99.90
2019-02-21T01:56:03.221Z,99.90
2019-02-21T01:58:33.686Z,99.90
2019-02-21T02:01:08.445Z,99.90
2019-02-21T02:03:36.626Z,99.90
2019-02-21T02:06:07.156Z,99.90
2019-02-21T02:08:37.551Z,99.90
2019-02-21T02:11:08.085Z,99.90
2019-02-21T02:13:38.502Z,99.90
2019-02-21T02:16:08.956Z,99.90
2019-02-21T02:18:39.391Z,99.90
2019-02-21T02:21:09.831Z,99.90
2019-02-21T02:23:40.295Z,99.90
2019-02-21T02:26:10.799Z,99.90
2019-02-21T02:28:41.230Z,99.90
2019-02-21T02:31:22.240Z,99.90
2019-02-21T02:33:43.876Z,99.90
2019-02-21T02:36:14.337Z,99.90
2019-02-21T02:38:44.793Z,99.90
2019-02-21T02:41:15.712Z,99.90
2019-02-21T02:43:46.173Z,99.90
2019-02-21T02:46:16.610Z,99.90
2019-02-21T02:48:47.083Z,99.90
2019-02-21T02:51:17.614Z,99.90
2019-02-21T02:53:48.033Z,99.90
2019-02-21T02:56:18.506Z,99.90
2019-02-21T02:58:48.910Z,99.90
2019-02-21T03:01:19.724Z,99.90
2019-02-21T03:03:50.210Z,99.90
2019-02-21T03:06:20.720Z,99.90
2019-02-21T03:08:51.210Z,99.90
2019-02-21T03:11:21.672Z,99.90
2019-02-21T03:13:52.167Z,99.90
2019-02-21T03:16:22.586Z,99.90
2019-02-21T03:18:55.195Z,99.90
2019-02-21T03:21:25.646Z,99.90
2019-02-21T03:23:56.067Z,99.90
2019-02-21T03:26:26.506Z,99.90
2019-02-21T03:28:56.977Z,99.90
2019-02-21T03:31:27.419Z,99.90
2019-02-21T03:33:57.869Z,99.90
2019-02-21T03:36:28.377Z,99.90
2019-02-21T03:38:58.793Z,99.90
2019-02-21T03:41:29.336Z,99.90
2019-02-21T03:43:59.765Z,99.90
2019-02-21T03:46:30.208Z,99.90
2019-02-21T03:49:00.699Z,99.90
2019-02-21T03:51:31.198Z,99.90
2019-02-21T03:54:01.930Z,99.90
2019-02-21T03:56:32.422Z,99.90
2019-02-21T03:59:03.073Z,99.90
2019-02-21T04:01:33.646Z,99.90
2019-02-21T04:04:04.166Z,99.90
2019-02-21T04:06:34.604Z,99.90
2019-02-21T04:09:08.793Z,99.90
2019-02-21T04:11:39.340Z,99.90
2019-02-21T04:14:09.807Z,99.90
2019-02-21T04:16:40.242Z,99.90
2019-02-21T04:19:10.774Z,99.90
2019-02-21T04:21:41.219Z,99.90
2019-02-21T04:24:11.667Z,99.90
2019-02-21T04:26:42.135Z,99.90
2019-02-21T04:29:12.582Z,99.90
2019-02-21T04:31:43.013Z,99.90
2019-02-21T04:34:13.442Z,99.90
2019-02-21T04:36:43.890Z,99.90
2019-02-21T04:39:14.436Z,99.90
2019-02-21T04:41:44.919Z,99.90
2019-02-21T04:44:15.369Z,99.90
2019-02-21T04:46:45.856Z,99.90
2019-02-21T04:49:16.309Z,99.90
2019-02-21T04:51:46.757Z,99.90
2019-02-21T04:54:17.235Z,99.90
2019-02-21T04:56:47.697Z,99.90
2019-02-21T04:59:19.782Z,99.90
2019-02-21T05:01:50.292Z,99.90
2019-02-21T05:04:20.889Z,99.90
2019-02-21T05:06:51.331Z,99.90
2019-02-21T05:09:21.813Z,99.90
2019-02-21T05:11:52.381Z,99.90
2019-02-21T05:14:22.864Z,99.90
2019-02-21T05:16:53.305Z,99.90
2019-02-21T05:19:23.873Z,99.90
2019-02-21T05:21:54.450Z,99.90
2019-02-21T05:24:25.032Z,99.90
2019-02-21T05:26:57.096Z,99.90
2019-02-21T05:29:27.579Z,99.90
2019-02-21T05:31:59.739Z,99.90
2019-02-21T05:34:43.938Z,99.90
2019-02-21T05:37:34.024Z,99.90
2019-02-21T05:40:22.076Z,99.90
2019-02-21T05:42:54.188Z,99.90
2019-02-21T05:45:34.926Z,99.90
2019-02-21T05:48:18.917Z,99.90
2019-02-21T05:50:51.013Z,99.90
2019-02-21T05:53:38.029Z,99.90
2019-02-21T05:56:16.178Z,99.90
2019-02-21T05:58:48.294Z,99.90
2019-02-21T06:01:20.375Z,99.90
2019-02-21T06:03:52.484Z,99.90
2019-02-21T06:06:24.548Z,99.90
2019-02-21T06:09:02.363Z,99.90
2019-02-21T06:11:35.240Z,99.90
2019-02-21T06:14:07.418Z,99.90
2019-02-21T06:16:39.513Z,99.90
2019-02-21T06:19:27.428Z,99.90
2019-02-21T06:22:10.726Z,99.90
2019-02-21T06:24:44.611Z,99.90
2019-02-21T06:27:16.688Z,99.90
2019-02-21T06:29:51.415Z,99.90
2019-02-21T06:32:21.831Z,99.90
2019-02-21T06:34:52.603Z,99.90
2019-02-21T06:37:23.005Z,99.90
2019-02-21T06:39:53.439Z,99.90
2019-02-21T06:42:23.887Z,99.90
2019-02-21T06:44:54.313Z,99.90
2019-02-21T06:47:24.762Z,99.90
2019-02-21T06:49:55.213Z,99.90
2019-02-21T06:52:25.651Z,99.90
2019-02-21T06:54:56.071Z,99.90
2019-02-21T06:57:26.525Z,99.90
2019-02-21T06:59:56.952Z,99.90
2019-02-21T07:02:28.252Z,99.90
2019-02-21T07:04:58.962Z,99.90
2019-02-21T07:07:29.414Z,99.90
2019-02-21T07:09:59.850Z,99.90
2019-02-21T07:12:30.286Z,99.90
2019-02-21T07:15:00.752Z,99.90
2019-02-21T07:17:31.209Z,99.90
2019-02-21T07:20:01.665Z,99.90
2019-02-21T07:22:32.099Z,99.90
2019-02-21T07:25:04.176Z,99.90
2019-02-21T07:27:34.643Z,99.90
2019-02-21T07:30:19.491Z,99.90
2019-02-21T07:32:42.589Z,99.90
2019-02-21T07:35:13.097Z,99.90
2019-02-21T07:37:43.563Z,99.90
2019-02-21T07:40:19.978Z,99.90
2019-02-21T07:42:48.005Z,99.90
2019-02-21T07:45:18.270Z,99.90
2019-02-21T07:47:48.704Z,99.90
2019-02-21T07:50:23.060Z,99.90
2019-02-21T07:53:01.942Z,99.90
2019-02-21T07:55:25.151Z,99.90
2019-02-21T07:57:55.582Z,99.90
2019-02-21T08:00:26.035Z,99.90
2019-02-21T08:02:56.465Z,99.90
2019-02-21T08:05:26.890Z,99.90
2019-02-21T08:07:57.333Z,99.90
2019-02-21T08:10:33.685Z,15.20
2019-02-21T08:12:59.892Z,1.00
2019-02-21T08:15:30.356Z,1.00
2019-02-21T08:18:00.857Z,1.00
2019-02-21T08:20:35.561Z,99.90
2019-02-21T08:23:03.795Z,99.90
2019-02-21T08:25:34.210Z,99.90
2019-02-21T08:28:04.633Z,99.90
2019-02-21T08:30:35.077Z,99.90
2019-02-21T08:33:07.147Z,99.90
2019-02-21T08:35:37.573Z,99.90
2019-02-21T08:38:08.054Z,99.90
2019-02-21T08:40:38.467Z,99.90
2019-02-21T08:43:08.929Z,99.90
2019-02-21T08:45:39.365Z,99.90
2019-02-21T08:48:09.865Z,99.90
2019-02-21T08:50:40.319Z,99.90
2019-02-21T08:53:12.964Z,99.90
2019-02-21T08:55:42.883Z,99.90
2019-02-21T08:58:13.318Z,99.90
2019-02-21T09:00:43.740Z,99.90
2019-02-21T09:03:14.189Z,99.90
2019-02-21T09:05:44.686Z,99.90
2019-02-21T09:08:16.721Z,71.10
2019-02-21T09:10:50.082Z,14.70
2019-02-21T09:13:20.526Z,10.30
2019-02-21T09:15:50.944Z,1.00
2019-02-21T09:18:21.375Z,1.00
2019-02-21T09:20:51.896Z,1.00
2019-02-21T09:23:22.927Z,1.00
2019-02-21T09:25:53.328Z,1.00
2019-02-21T09:28:23.807Z,1.00
2019-02-21T09:30:54.832Z,1.00
2019-02-21T09:33:25.250Z,1.00
2019-02-21T09:35:56.838Z,1.00
2019-02-21T09:38:27.837Z,1.00
2019-02-21T09:40:58.340Z,1.00
2019-02-21T09:43:28.768Z,1.00
2019-02-21T09:45:59.189Z,1.00
2019-02-21T09:48:29.645Z,1.00
2019-02-21T09:51:00.070Z,1.00
2019-02-21T09:53:30.488Z,1.00
2019-02-21T09:56:00.958Z,1.00
2019-02-21T09:58:31.370Z,1.00
2019-02-21T10:01:01.812Z,1.00
2019-02-21T10:03:32.244Z,1.00
2019-02-21T10:06:02.683Z,1.00
2019-02-21T10:08:33.125Z,1.00
2019-02-21T10:11:03.577Z,1.00
2019-02-21T10:13:33.993Z,1.00
2019-02-21T10:16:04.969Z,1.00
2019-02-21T10:18:36.036Z,1.00
2019-02-21T10:21:07.093Z,1.00
2019-02-21T10:23:37.556Z,1.00
2019-02-21T10:26:08.002Z,1.00
2019-02-21T10:28:38.412Z,1.00
2019-02-21T10:31:08.831Z,1.00
2019-02-21T10:33:46.563Z,1.00
2019-02-21T10:36:11.406Z,1.00
2019-02-21T10:38:42.081Z,1.00
2019-02-21T10:41:12.519Z,1.00
2019-02-21T10:43:42.946Z,1.00
2019-02-21T10:46:13.380Z,1.00
2019-02-21T10:48:43.819Z,1.00
2019-02-21T10:51:14.243Z,1.00
2019-02-21T10:53:44.684Z,1.00
2019-02-21T10:56:15.123Z,1.00
2019-02-21T10:58:45.610Z,1.00
2019-02-21T11:01:16.055Z,1.00
2019-02-21T11:03:46.471Z,1.00
2019-02-21T11:06:16.895Z,1.00
2019-02-21T11:08:47.910Z,1.00
2019-02-21T11:11:18.713Z,1.00
2019-02-21T11:13:49.139Z,1.00
2019-02-21T11:16:19.604Z,1.00
2019-02-21T11:18:50.448Z,1.00
2019-02-21T11:21:20.877Z,1.00
2019-02-21T11:23:51.879Z,1.00
2019-02-21T11:26:22.877Z,1.00
2019-02-21T11:28:53.916Z,1.00
2019-02-21T11:31:28.083Z,1.00
2019-02-21T11:33:59.041Z,1.00
2019-02-21T11:36:30.169Z,1.00
2019-02-21T11:39:02.915Z,1.00
2019-02-21T11:41:34.036Z,1.00
2019-02-21T11:44:05.371Z,1.00
2019-02-21T11:46:36.381Z,1.00
2019-02-21T11:49:07.563Z,1.00
2019-02-21T11:51:38.255Z,1.00
2019-02-21T11:54:08.832Z,1.00
2019-02-21T11:56:39.294Z,1.00
2019-02-21T11:59:11.058Z,1.00
2019-02-21T12:01:41.573Z,1.00
2019-02-21T12:04:12.047Z,1.00
2019-02-21T12:06:42.934Z,1.00
2019-02-21T12:09:13.934Z,1.00
2019-02-21T12:11:44.694Z,1.00
2019-02-21T12:14:15.749Z,1.00
2019-02-21T12:16:46.813Z,1.00
2019-02-21T12:19:17.821Z,1.00
2019-02-21T12:21:58.611Z,1.00
2019-02-21T12:24:21.550Z,1.00
2019-02-21T12:26:51.984Z,1.00
2019-02-21T12:29:22.693Z,1.00
2019-02-21T12:31:53.137Z,1.00
2019-02-21T12:34:23.649Z,1.00
2019-02-21T12:36:54.057Z,1.00
2019-02-21T12:39:24.508Z,1.00
2019-02-21T12:41:54.999Z,1.00
2019-02-21T12:44:25.412Z,1.00
2019-02-21T12:46:55.827Z,1.00
2019-02-21T12:49:26.267Z,1.00
2019-02-21T12:51:57.562Z,1.00
2019-02-21T12:54:28.127Z,1.00
2019-02-21T12:56:58.535Z,1.00
2019-02-21T12:59:28.971Z,1.00
2019-02-21T13:02:00.139Z,1.00
2019-02-21T13:04:33.321Z,1.00
2019-02-21T13:07:03.847Z,1.00
2019-02-21T13:09:35.024Z,1.00
2019-02-21T13:12:05.453Z,1.00
2019-02-21T13:14:35.894Z,1.00
2019-02-21T13:17:06.329Z,1.00
2019-02-21T13:19:37.354Z,1.00
2019-02-21T13:22:08.147Z,1.00
2019-02-21T13:24:38.644Z,1.00
2019-02-21T13:27:09.159Z,1.00
2019-02-21T13:29:39.590Z,1.00
2019-02-21T13:32:10.023Z,1.00
2019-02-21T13:34:40.470Z,1.00
2019-02-21T13:37:10.942Z,1.00
2019-02-21T13:39:41.906Z,1.00
2019-02-21T13:42:12.418Z,1.00
2019-02-21T13:44:42.840Z,1.00
2019-02-21T13:47:13.279Z,1.00
2019-02-21T13:49:43.716Z,1.00
2019-02-21T13:52:14.147Z,1.00
2019-02-21T13:54:44.859Z,1.00
2019-02-21T13:57:15.290Z,1.00
2019-02-21T13:59:45.721Z,1.00
2019-02-21T14:02:16.517Z,1.00
2019-02-21T14:04:47.257Z,1.00
2019-02-21T14:07:17.709Z,1.00
2019-02-21T14:09:48.197Z,1.00
2019-02-21T14:12:18.978Z,1.00
2019-02-21T14:14:49.448Z,1.00
2019-02-21T14:17:19.874Z,1.00
2019-02-21T14:19:52.896Z,1.00
2019-02-21T14:22:22.546Z,1.00
2019-02-21T14:24:53.026Z,1.00
2019-02-21T14:27:23.463Z,1.00
2019-02-21T14:29:53.992Z,1.00
2019-02-21T14:32:24.430Z,1.00
2019-02-21T14:34:54.974Z,1.00
2019-02-21T14:37:25.625Z,1.00
2019-02-21T14:39:56.936Z,1.00
2019-02-21T14:42:30.868Z,1.00
2019-02-21T14:45:00.637Z,1.00
2019-02-21T14:47:37.171Z,1.00
2019-02-21T14:50:11.284Z,1.00
2019-02-21T14:52:42.095Z,1.00
2019-02-21T14:55:19.183Z,1.00
2019-02-21T14:57:52.615Z,1.00
2019-02-21T15:00:25.340Z,1.00
2019-02-21T15:02:58.689Z,1.00
2019-02-21T15:05:31.055Z,1.00
2019-02-21T15:08:01.500Z,1.00
2019-02-21T15:10:31.938Z,1.00
2019-02-21T15:13:02.636Z,1.00
2019-02-21T15:15:56.876Z,1.00
2019-02-21T15:18:31.938Z,1.00
2019-02-21T15:21:02.381Z,1.00
2019-02-21T15:23:32.955Z,1.00
2019-02-21T15:26:13.018Z,1.00
2019-02-21T15:28:43.977Z,1.00
2019-02-21T15:31:16.034Z,1.00
2019-02-21T15:33:46.477Z,1.00
2019-02-21T15:36:16.923Z,1.00
2019-02-21T15:38:47.651Z,1.00
2019-02-21T15:41:18.852Z,1.00
2019-02-21T15:43:49.301Z,1.00
2019-02-21T15:46:19.747Z,1.00
2019-02-21T15:48:50.647Z,1.00
2019-02-21T15:51:21.091Z,1.00
2019-02-21T15:53:51.631Z,1.00
2019-02-21T15:56:22.072Z,1.00
2019-02-21T15:58:52.602Z,1.00
2019-02-21T16:01:23.164Z,1.00
2019-02-21T16:03:53.864Z,1.00
2019-02-21T16:06:24.571Z,1.00
2019-02-21T16:08:56.626Z,1.00
2019-02-21T16:11:27.300Z,1.00
2019-02-21T16:14:03.061Z,1.00
2019-02-21T16:16:30.257Z,9.40
2019-02-21T16:19:00.993Z,22.30
2019-02-21T16:21:31.594Z,39.90
2019-02-21T16:24:02.275Z,60.70
2019-02-21T16:26:32.759Z,88.00
2019-02-21T16:29:03.229Z,91.90
2019-02-21T16:31:33.628Z,99.90
2019-02-21T16:34:04.321Z,99.90
2019-02-21T16:36:34.771Z,99.90
2019-02-21T16:39:06.506Z,99.90
2019-02-21T16:41:37.762Z,99.90
2019-02-21T16:44:08.486Z,99.90
2019-02-21T16:46:38.979Z,99.90
2019-02-21T16:49:09.666Z,99.90
2019-02-21T16:51:40.130Z,99.90
2019-02-21T16:54:10.572Z,99.90
2019-02-21T16:56:41.035Z,99.90
2019-02-21T16:59:11.479Z,99.90
2019-02-21T17:01:42.247Z,99.90
2019-02-21T17:04:12.702Z,99.90
2019-02-21T17:06:43.395Z,99.90
2019-02-21T17:09:14.692Z,99.90
2019-02-21T17:11:45.741Z,99.90
2019-02-21T17:14:16.196Z,99.90
2019-02-21T17:16:46.732Z,99.90
2019-02-21T17:19:17.424Z,99.90
2019-02-21T17:21:47.963Z,99.90
2019-02-21T17:24:18.402Z,1.00
2019-02-21T17:26:48.913Z,1.00
2019-02-21T17:29:19.348Z,1.00
2019-02-21T17:31:49.802Z,1.00
2019-02-21T17:34:20.247Z,1.00
2019-02-21T17:36:50.663Z,1.00
2019-02-21T17:39:21.137Z,1.00
2019-02-21T17:41:52.677Z,1.00
2019-02-21T17:44:23.206Z,1.00
2019-02-21T17:46:53.832Z,1.00
2019-02-21T17:49:24.252Z,1.00
2019-02-21T17:51:54.729Z,1.00
2019-02-21T17:54:27.656Z,1.00
2019-02-21T17:56:57.665Z,1.00
2019-02-21T17:59:28.117Z,1.00
2019-02-21T18:01:58.566Z,1.00
2019-02-21T18:04:29.066Z,1.00
2019-02-21T18:06:59.811Z,1.00
2019-02-21T18:09:30.555Z,1.00
2019-02-21T18:12:01.011Z,1.00
2019-02-21T18:14:31.800Z,1.00
2019-02-21T18:17:02.432Z,1.00
2019-02-21T18:19:33.147Z,1.00
2019-02-21T18:22:03.902Z,1.00
2019-02-21T18:24:34.867Z,1.00
2019-02-21T18:27:06.452Z,1.00
2019-02-21T18:29:36.928Z,1.00
2019-02-21T18:32:07.441Z,1.00
2019-02-21T18:34:37.935Z,1.00
2019-02-21T18:37:08.555Z,1.00
2019-02-21T18:39:39.438Z,1.00
2019-02-21T18:42:10.858Z,1.00
2019-02-21T18:44:41.713Z,1.00
2019-02-21T18:47:12.322Z,1.00
2019-02-21T18:49:42.953Z,1.00
2019-02-21T18:52:13.656Z,1.00
2019-02-21T18:54:44.491Z,99.90
2019-02-21T18:57:15.058Z,1.00
2019-02-21T18:59:45.568Z,1.00
2019-02-21T19:02:16.195Z,99.90
2019-02-21T19:04:46.871Z,99.90
2019-02-21T19:07:17.799Z,99.90
2019-02-21T19:09:48.683Z,99.90
2019-02-21T19:12:19.092Z,99.90
2019-02-21T19:14:49.849Z,99.90
2019-02-21T19:17:20.698Z,99.90
2019-02-21T19:19:51.405Z,99.90
2019-02-21T19:22:22.150Z,99.90
2019-02-21T19:24:52.861Z,99.90
2019-02-21T19:27:23.450Z,99.90
2019-02-21T19:29:54.197Z,99.90
2019-02-21T19:32:24.673Z,99.90
2019-02-21T19:34:55.619Z,99.90
2019-02-21T19:37:26.311Z,99.90
2019-02-21T19:39:56.913Z,1.00
2019-02-21T19:42:28.186Z,1.00
2019-02-21T19:44:58.971Z,1.00
2019-02-21T19:47:29.700Z,1.00
2019-02-21T19:50:00.513Z,1.00
2019-02-21T19:52:31.400Z,1.00
2019-02-21T19:55:02.218Z,1.00
2019-02-21T19:57:33.286Z,1.00
2019-02-21T20:00:03.864Z,1.00
2019-02-21T20:02:34.350Z,1.00
2019-02-21T20:05:06.699Z,1.00
2019-02-21T20:07:37.162Z,1.00
2019-02-21T20:10:09.533Z,1.00
2019-02-21T20:12:40.225Z,1.00
2019-02-21T20:15:12.367Z,1.00
2019-02-21T20:17:42.958Z,1.00
2019-02-21T20:20:18.259Z,1.00
2019-02-21T20:22:48.748Z,1.00
2019-02-21T20:25:19.450Z,1.00
2019-02-21T20:27:50.382Z,1.00
2019-02-21T20:30:21.151Z,1.00
2019-02-21T20:32:51.682Z,1.00
2019-02-21T20:35:22.207Z,1.00
2019-02-21T20:37:52.675Z,1.00
2019-02-21T20:40:23.512Z,1.00
2019-02-21T20:42:54.987Z,1.00
2019-02-21T20:45:25.498Z,1.00
2019-02-21T20:47:56.495Z,1.00
2019-02-21T20:50:27.191Z,1.00
2019-02-21T20:52:58.072Z,1.00
2019-02-21T20:55:28.618Z,1.00
2019-02-21T20:57:59.365Z,1.00
2019-02-21T21:00:30.011Z,1.00
2019-02-21T21:03:00.584Z,1.00
2019-02-21T21:05:31.178Z,1.00
2019-02-21T21:08:01.908Z,1.00
2019-02-21T21:10:32.414Z,1.00
2019-02-21T21:13:02.868Z,1.00
2019-02-21T21:15:33.605Z,1.00
2019-02-21T21:18:04.152Z,1.00
2019-02-21T21:20:34.579Z,1.00
2019-02-21T21:23:05.335Z,1.00
2019-02-21T21:25:35.850Z,1.00
2019-02-21T21:28:06.771Z,1.00
2019-02-21T21:30:37.485Z,1.00
2019-02-21T21:33:09.826Z,1.00
2019-02-21T21:35:41.269Z,1.00
2019-02-21T21:38:23.419Z,1.00
2019-02-21T21:40:46.157Z,1.00
2019-02-21T21:43:17.801Z,1.00
2019-02-21T21:45:48.785Z,1.00
2019-02-21T21:48:19.602Z,1.00
2019-02-21T21:50:50.385Z,1.00
2019-02-21T21:53:21.094Z,1.00
2019-02-21T21:55:52.630Z,1.00
2019-02-21T21:58:23.784Z,1.00
2019-02-21T22:00:55.071Z,1.00
2019-02-21T22:03:25.598Z,1.00
2019-02-21T22:05:56.157Z,1.00
2019-02-21T22:08:26.908Z,1.00
2019-02-21T22:10:57.414Z,1.00
2019-02-21T22:13:27.975Z,1.00
2019-02-21T22:15:58.544Z,1.00
2019-02-21T22:18:29.055Z,1.00
2019-02-21T22:20:59.654Z,1.00
2019-02-21T22:23:30.514Z,1.00
2019-02-21T22:26:01.085Z,1.00
2019-02-21T22:28:31.576Z,1.00
2019-02-21T22:31:02.024Z,1.00
2019-02-21T22:33:32.455Z,1.00
2019-02-21T22:36:02.960Z,1.00
2019-02-21T22:38:33.591Z,1.00
2019-02-21T22:41:04.022Z,1.00
2019-02-21T22:43:35.281Z,1.00
2019-02-21T22:46:06.496Z,1.00
2019-02-21T22:48:46.885Z,1.00
2019-02-21T22:51:09.387Z,1.00
2019-02-21T22:53:39.839Z,1.00
2019-02-21T22:56:10.268Z,1.00
2019-02-21T22:58:45.011Z,1.00
2019-02-21T23:01:23.413Z,1.00
2019-02-21T23:03:58.336Z,1.00
2019-02-21T23:06:41.889Z,1.00
2019-02-21T23:09:14.051Z,1.00
2019-02-21T23:11:44.542Z,1.00
2019-02-21T23:14:15.073Z,1.00
2019-02-21T23:16:45.636Z,1.00
2019-02-21T23:19:16.090Z,1.00
2019-02-21T23:21:46.606Z,1.00
2019-02-21T23:24:17.056Z,1.00
2019-02-21T23:26:47.465Z,1.00
2019-02-21T23:29:17.943Z,1.00
2019-02-21T23:31:48.397Z,1.00
2019-02-21T23:34:23.659Z,1.00
2019-02-21T23:36:54.392Z,1.00
2019-02-21T23:39:25.133Z,1.00
2019-02-21T23:41:55.540Z,1.00
2019-02-21T23:44:26.975Z,1.00
2019-02-21T23:46:57.750Z,1.00
2019-02-21T23:49:28.198Z,1.00
2019-02-21T23:51:58.651Z,1.00
2019-02-21T23:54:29.103Z,1.00
2019-02-21T23:56:59.809Z,1.00
2019-02-21T23:59:30.248Z,1.00
